createdAt,value
2022-08-28T00:00:25.696Z,13.83
2022-08-28T00:02:53.651Z,13.81
2022-08-28T00:05:22.605Z,13.91
2022-08-28T00:07:49.478Z,13.89
2022-08-28T00:10:19.461Z,13.97
2022-08-28T00:12:49.513Z,13.94
2022-08-28T00:15:22.061Z,13.81
2022-08-28T00:17:49.363Z,13.87
2022-08-28T00:20:18.774Z,13.78
2022-08-28T00:22:47.334Z,13.85
2022-08-28T00:25:15.097Z,13.85
2022-08-28T00:27:54.974Z,14.02
2022-08-28T00:30:42.051Z,14.00
2022-08-28T00:33:30.538Z,13.95
2022-08-28T00:35:58.112Z,13.89
2022-08-28T00:38:27.222Z,13.95
2022-08-28T00:40:58.394Z,14.04
2022-08-28T00:43:49.245Z,13.89
2022-08-28T00:46:23.299Z,13.94
2022-08-28T00:48:50.741Z,13.80
2022-08-28T00:51:37.965Z,13.85
2022-08-28T00:54:07.859Z,13.84
2022-08-28T00:56:36.057Z,13.88
2022-08-28T00:59:09.002Z,13.89
2022-08-28T01:01:38.763Z,13.79
2022-08-28T01:04:06.414Z,13.93
2022-08-28T01:06:36.620Z,13.93
2022-08-28T01:09:04.786Z,14.04
2022-08-28T01:11:31.807Z,13.91
2022-08-28T01:14:01.963Z,13.89
2022-08-28T01:16:33.061Z,13.92
2022-08-28T01:19:03.491Z,13.88
2022-08-28T01:21:42.948Z,13.99
2022-08-28T01:24:14.985Z,14.00
2022-08-28T01:26:43.391Z,14.05
2022-08-28T01:29:11.980Z,14.04
2022-08-28T01:31:40.896Z,14.18
2022-08-28T01:34:10.004Z,14.05
2022-08-28T01:36:36.998Z,14.06
2022-08-28T01:39:16.974Z,13.93
2022-08-28T01:41:46.911Z,13.93
2022-08-28T01:44:15.282Z,13.86
2022-08-28T01:46:45.434Z,13.72
2022-08-28T01:49:12.483Z,13.82
2022-08-28T01:51:41.276Z,14.01
2022-08-28T01:54:09.850Z,13.82
2022-08-28T01:56:37.831Z,13.85
2022-08-28T01:59:07.960Z,13.91
2022-08-28T02:01:35.112Z,13.65
2022-08-28T02:04:04.421Z,13.91
2022-08-28T02:06:31.767Z,13.94
2022-08-28T02:08:59.529Z,13.91
2022-08-28T02:11:29.367Z,14.03
2022-08-28T02:13:56.557Z,13.94
2022-08-28T02:16:23.374Z,13.84
2022-08-28T02:18:50.146Z,13.98
2022-08-28T02:21:17.301Z,13.68
2022-08-28T02:23:45.269Z,13.65
2022-08-28T02:26:13.630Z,13.76
2022-08-28T02:28:41.255Z,13.94
2022-08-28T02:31:09.522Z,13.82
2022-08-28T02:33:41.997Z,13.53
2022-08-28T02:36:10.062Z,13.71
2022-08-28T02:38:37.558Z,13.89
2022-08-28T02:41:05.586Z,13.64
2022-08-28T02:43:32.643Z,13.67
2022-08-28T02:45:59.517Z,13.68
2022-08-28T02:48:31.979Z,13.61
2022-08-28T02:51:04.028Z,13.62
2022-08-28T02:53:31.393Z,13.52
2022-08-28T02:55:59.214Z,13.47
2022-08-28T02:58:27.310Z,13.59
2022-08-28T03:00:55.174Z,13.75
2022-08-28T03:03:22.255Z,13.84
2022-08-28T03:05:49.850Z,13.90
2022-08-28T03:08:16.744Z,13.82
2022-08-28T03:10:43.473Z,13.89
2022-08-28T03:13:11.263Z,13.85
2022-08-28T03:15:52.020Z,13.88
2022-08-28T03:18:24.477Z,13.68
2022-08-28T03:20:52.667Z,13.67
2022-08-28T03:23:28.706Z,13.66
2022-08-28T03:26:04.949Z,13.69
2022-08-28T03:28:41.284Z,13.68
2022-08-28T03:31:10.700Z,13.72
2022-08-28T03:33:37.893Z,13.77
2022-08-28T03:37:02.003Z,13.79
2022-08-28T03:39:43.081Z,13.78
2022-08-28T03:43:34.671Z,13.83
2022-08-28T03:46:41.478Z,14.08
2022-08-28T03:49:08.305Z,13.94
2022-08-28T03:51:35.353Z,14.01
2022-08-28T03:54:05.389Z,13.89
2022-08-28T03:56:32.421Z,13.91
2022-08-28T03:59:01.582Z,13.70
2022-08-28T04:01:28.873Z,13.84
2022-08-28T04:03:56.191Z,13.80
2022-08-28T04:06:23.509Z,13.75
2022-08-28T04:08:51.153Z,13.70
2022-08-28T04:11:18.594Z,13.84
2022-08-28T04:13:45.554Z,13.78
2022-08-28T04:16:17.986Z,13.89
2022-08-28T04:18:46.852Z,13.94
2022-08-28T04:21:18.146Z,14.05
2022-08-28T04:23:46.150Z,13.96
2022-08-28T04:26:16.212Z,13.85
2022-08-28T04:28:43.897Z,13.77
2022-08-28T04:31:11.164Z,13.75
2022-08-28T04:33:38.476Z,13.78
2022-08-28T04:36:11.907Z,13.82
2022-08-28T04:38:43.641Z,13.75
2022-08-28T04:41:13.166Z,13.90
2022-08-28T04:43:40.213Z,13.95
2022-08-28T04:46:11.477Z,13.99
2022-08-28T04:48:38.884Z,14.13
2022-08-28T04:51:09.437Z,14.02
2022-08-28T04:53:37.823Z,14.16
2022-08-28T04:56:07.491Z,14.15
2022-08-28T04:58:35.202Z,13.89
2022-08-28T05:01:24.418Z,13.96
2022-08-28T05:03:54.984Z,13.90
2022-08-28T05:06:22.872Z,13.86
2022-08-28T05:08:49.777Z,13.83
2022-08-28T05:11:34.441Z,13.76
2022-08-28T05:14:08.933Z,13.80
2022-08-28T05:16:49.739Z,13.75
2022-08-28T05:19:18.958Z,13.77
2022-08-28T05:21:46.149Z,13.80
2022-08-28T05:24:13.959Z,13.86
2022-08-28T05:26:41.371Z,13.86
2022-08-28T05:29:10.058Z,13.75
2022-08-28T05:31:39.230Z,13.79
2022-08-28T05:34:07.100Z,13.81
2022-08-28T05:36:36.301Z,13.74
2022-08-28T05:39:06.926Z,13.76
2022-08-28T05:41:35.051Z,13.80
2022-08-28T05:44:08.454Z,13.84
2022-08-28T05:46:38.119Z,13.77
2022-08-28T05:49:09.663Z,13.78
2022-08-28T05:51:39.299Z,13.89
2022-08-28T05:54:06.118Z,13.89
2022-08-28T05:56:38.627Z,13.96
2022-08-28T05:59:06.844Z,14.04
2022-08-28T06:01:39.073Z,14.00
2022-08-28T06:04:15.432Z,14.08
2022-08-28T06:06:42.748Z,14.11
2022-08-28T06:09:16.470Z,14.13
2022-08-28T06:11:46.220Z,14.23
2022-08-28T06:14:17.471Z,14.30
2022-08-28T06:16:47.869Z,14.43
2022-08-28T06:19:16.967Z,14.47
2022-08-28T06:21:43.984Z,14.53
2022-08-28T06:24:12.162Z,14.57
2022-08-28T06:26:39.186Z,14.68
2022-08-28T06:29:09.725Z,14.55
2022-08-28T06:31:37.215Z,14.83
2022-08-28T06:34:04.847Z,14.90
2022-08-28T06:36:34.985Z,14.75
2022-08-28T06:39:04.895Z,14.85
2022-08-28T06:41:33.375Z,14.75
2022-08-28T06:44:00.379Z,14.74
2022-08-28T06:46:29.022Z,14.78
2022-08-28T06:48:55.881Z,14.84
2022-08-28T06:51:23.151Z,14.85
2022-08-28T06:53:52.557Z,15.11
2022-08-28T06:56:25.907Z,15.11
2022-08-28T06:58:56.754Z,15.30
2022-08-28T07:01:27.018Z,15.46
2022-08-28T07:03:55.765Z,15.18
2022-08-28T07:06:23.409Z,15.23
2022-08-28T07:08:51.137Z,15.35
2022-08-28T07:11:21.945Z,15.35
2022-08-28T07:13:53.915Z,15.50
2022-08-28T07:16:23.750Z,15.38
2022-08-28T07:18:50.653Z,15.79
2022-08-28T07:21:17.502Z,15.41
2022-08-28T07:23:45.114Z,15.26
2022-08-28T07:26:15.709Z,15.69
2022-08-28T07:29:10.159Z,15.51
2022-08-28T07:31:44.354Z,15.57
2022-08-28T07:34:13.912Z,15.80
2022-08-28T07:36:41.587Z,15.89
2022-08-28T07:39:10.594Z,15.60
2022-08-28T07:41:40.269Z,15.71
2022-08-28T07:44:27.169Z,15.98
2022-08-28T07:46:59.725Z,15.91
2022-08-28T07:49:26.742Z,15.67
2022-08-28T07:51:53.967Z,15.39
2022-08-28T07:54:22.097Z,15.74
2022-08-28T07:56:49.311Z,15.87
2022-08-28T07:59:19.194Z,16.13
2022-08-28T08:01:48.126Z,15.88
2022-08-28T08:04:17.276Z,15.62
2022-08-28T08:06:45.007Z,15.71
2022-08-28T08:09:14.407Z,15.78
2022-08-28T08:11:42.163Z,15.67
2022-08-28T08:14:08.991Z,15.87
2022-08-28T08:16:39.780Z,16.27
2022-08-28T08:19:10.121Z,16.35
2022-08-28T08:21:38.025Z,16.28
2022-08-28T08:24:05.039Z,16.74
2022-08-28T08:26:33.129Z,17.25
2022-08-28T08:29:00.426Z,17.41
2022-08-28T08:31:30.239Z,16.65
2022-08-28T08:34:01.871Z,16.77
2022-08-28T08:36:30.429Z,16.69
2022-08-28T08:39:00.319Z,16.76
2022-08-28T08:41:30.354Z,17.17
2022-08-28T08:44:06.422Z,17.98
2022-08-28T08:46:41.136Z,18.14
2022-08-28T08:49:16.151Z,18.06
2022-08-28T08:51:47.935Z,17.73
2022-08-28T08:54:19.699Z,17.33
2022-08-28T08:56:47.466Z,17.71
2022-08-28T08:59:23.660Z,17.80
2022-08-28T09:02:12.687Z,17.47
2022-08-28T09:05:01.905Z,17.87
2022-08-28T09:07:56.644Z,17.31
2022-08-28T09:10:30.364Z,17.62
2022-08-28T09:13:10.768Z,17.43
2022-08-28T09:15:41.360Z,18.00
2022-08-28T09:18:34.160Z,17.44
2022-08-28T09:21:01.306Z,17.19
2022-08-28T09:23:30.014Z,17.21
2022-08-28T09:25:57.024Z,17.44
2022-08-28T09:28:32.823Z,17.78
2022-08-28T09:31:04.529Z,18.01
2022-08-28T09:33:36.739Z,18.18
2022-08-28T09:36:28.008Z,17.87
2022-08-28T09:39:19.221Z,17.79
2022-08-28T09:42:12.622Z,18.41
2022-08-28T09:45:21.294Z,17.63
2022-08-28T09:47:58.506Z,17.72
2022-08-28T09:50:35.258Z,18.17
2022-08-28T09:53:13.764Z,18.65
2022-08-28T09:55:59.496Z,18.71
2022-08-28T09:58:42.770Z,18.69
2022-08-28T10:01:28.952Z,18.63
2022-08-28T10:04:15.285Z,19.17
2022-08-28T10:07:24.927Z,18.95
2022-08-28T10:10:10.226Z,20.06
2022-08-28T10:12:59.424Z,20.43
2022-08-28T10:15:32.587Z,20.87
2022-08-28T10:18:09.339Z,20.65
2022-08-28T10:20:42.194Z,20.67
2022-08-28T10:23:59.812Z,21.18
2022-08-28T10:26:34.808Z,21.30
2022-08-28T10:29:16.801Z,21.63
2022-08-28T10:31:49.730Z,21.45
2022-08-28T10:34:34.631Z,21.91
2022-08-28T10:37:39.171Z,22.02
2022-08-28T10:40:13.940Z,21.14
2022-08-28T10:42:50.971Z,21.92
2022-08-28T10:45:24.322Z,21.13
2022-08-28T10:47:58.120Z,21.31
2022-08-28T10:50:42.598Z,23.30
2022-08-28T10:53:17.106Z,22.10
2022-08-28T10:55:53.018Z,21.53
2022-08-28T10:58:24.900Z,20.78
2022-08-28T11:01:01.280Z,20.85
2022-08-28T11:03:34.889Z,21.39
2022-08-28T11:06:11.381Z,20.90
2022-08-28T11:08:39.932Z,20.46
2022-08-28T11:11:15.122Z,20.54
2022-08-28T11:14:02.339Z,20.46
2022-08-28T11:16:30.310Z,20.86
2022-08-28T11:19:34.930Z,20.14
2022-08-28T11:22:16.935Z,20.47
2022-08-28T11:25:06.517Z,20.48
2022-08-28T11:27:38.484Z,19.97
2022-08-28T11:30:05.138Z,19.93
2022-08-28T11:32:31.875Z,20.73
2022-08-28T11:35:26.015Z,19.68
2022-08-28T11:37:54.930Z,19.61
2022-08-28T11:40:30.439Z,19.66
2022-08-28T11:43:15.854Z,19.63
2022-08-28T11:45:59.287Z,19.26
2022-08-28T11:49:19.562Z,19.45
2022-08-28T11:53:21.643Z,19.31
2022-08-28T12:00:25.525Z,19.03
2022-08-28T12:03:03.143Z,18.72
2022-08-28T12:05:33.322Z,18.91
2022-08-28T12:08:02.635Z,19.07
2022-08-28T12:10:30.708Z,18.55
2022-08-28T12:13:03.992Z,18.47
2022-08-28T12:15:31.207Z,18.73
2022-08-28T12:18:04.977Z,18.31
2022-08-28T12:20:50.179Z,18.65
2022-08-28T12:23:36.795Z,18.38
2022-08-28T12:26:06.812Z,18.36
2022-08-28T12:28:39.472Z,18.41
2022-08-28T12:31:08.937Z,18.06
2022-08-28T12:33:51.986Z,18.32
2022-08-28T12:36:26.673Z,18.23
2022-08-28T12:38:55.509Z,18.12
2022-08-28T12:41:26.727Z,18.10
2022-08-28T12:43:57.364Z,18.27
2022-08-28T12:46:37.611Z,18.18
2022-08-28T12:49:25.928Z,18.19
2022-08-28T12:52:18.117Z,17.87
2022-08-28T12:54:46.826Z,17.83
2022-08-28T12:57:17.719Z,17.87
2022-08-28T12:59:47.559Z,17.84
2022-08-28T13:02:36.114Z,17.60
2022-08-28T13:05:07.165Z,17.68
2022-08-28T13:07:41.148Z,17.84
2022-08-28T13:10:26.679Z,17.64
2022-08-28T13:13:06.929Z,17.44
2022-08-28T13:15:46.090Z,17.65
2022-08-28T13:18:34.558Z,17.54
2022-08-28T13:21:17.807Z,17.69
2022-08-28T13:24:21.179Z,17.28
2022-08-28T13:26:50.742Z,17.24
2022-08-28T13:29:24.397Z,17.56
2022-08-28T13:32:01.173Z,17.48
2022-08-28T13:34:30.704Z,17.36
2022-08-28T13:37:04.156Z,17.23
2022-08-28T13:39:36.196Z,17.18
2022-08-28T13:42:21.075Z,17.18
2022-08-28T13:44:52.810Z,17.07
2022-08-28T13:47:20.017Z,17.01
2022-08-28T13:49:47.144Z,16.93
2022-08-28T13:52:14.110Z,16.97
2022-08-28T13:54:43.490Z,16.94
2022-08-28T13:57:10.937Z,16.91
2022-08-28T13:59:37.656Z,16.85
2022-08-28T14:02:27.053Z,16.80
2022-08-28T14:04:53.858Z,16.79
2022-08-28T14:07:20.719Z,16.83
2022-08-28T14:09:47.494Z,16.80
2022-08-28T14:12:14.505Z,16.68
2022-08-28T14:14:41.506Z,16.92
2022-08-28T14:17:09.826Z,16.82
2022-08-28T14:19:37.307Z,16.71
2022-08-28T14:22:04.418Z,16.71
2022-08-28T14:24:32.022Z,16.67
2022-08-28T14:26:59.683Z,16.70
2022-08-28T14:29:26.541Z,16.92
2022-08-28T14:31:54.160Z,16.77
2022-08-28T14:34:22.667Z,16.59
2022-08-28T14:36:51.065Z,16.64
2022-08-28T14:39:18.184Z,16.74
2022-08-28T14:41:46.901Z,16.70
2022-08-28T14:44:13.882Z,16.78
2022-08-28T14:46:43.720Z,16.76
2022-08-28T14:49:13.369Z,16.69
2022-08-28T14:51:42.418Z,16.83
2022-08-28T14:54:13.226Z,16.82
2022-08-28T14:56:41.671Z,16.93
2022-08-28T14:59:13.564Z,16.88
2022-08-28T15:01:43.153Z,16.92
2022-08-28T15:04:13.592Z,16.89
2022-08-28T15:06:42.554Z,16.73
2022-08-28T15:09:11.561Z,16.57
2022-08-28T15:11:39.255Z,16.55
2022-08-28T15:14:06.606Z,16.81
2022-08-28T15:16:39.217Z,16.82
2022-08-28T15:19:11.645Z,16.77
2022-08-28T15:21:59.616Z,16.70
2022-08-28T15:24:30.813Z,16.63
2022-08-28T15:26:59.734Z,16.68
2022-08-28T15:29:29.423Z,16.73
2022-08-28T15:31:57.338Z,16.40
2022-08-28T15:34:26.984Z,16.32
2022-08-28T15:36:56.045Z,16.42
2022-08-28T15:39:47.063Z,16.39
2022-08-28T15:42:14.808Z,16.24
2022-08-28T15:44:42.150Z,16.23
2022-08-28T15:47:09.415Z,16.25
2022-08-28T15:49:43.472Z,16.19
2022-08-28T15:52:15.544Z,16.23
2022-08-28T15:54:42.929Z,16.19
2022-08-28T15:57:09.863Z,16.23
2022-08-28T15:59:40.041Z,16.29
2022-08-28T16:02:16.628Z,16.29
2022-08-28T16:04:43.453Z,16.31
2022-08-28T16:07:10.729Z,16.12
2022-08-28T16:09:37.486Z,16.10
2022-08-28T16:12:04.958Z,16.19
2022-08-28T16:14:32.871Z,16.06
2022-08-28T16:17:00.010Z,16.00
2022-08-28T16:19:32.974Z,16.05
2022-08-28T16:22:00.330Z,16.08
2022-08-28T16:24:27.191Z,16.05
2022-08-28T16:26:54.133Z,16.04
2022-08-28T16:29:21.060Z,15.97
2022-08-28T16:31:48.889Z,15.83
2022-08-28T16:34:15.973Z,15.93
2022-08-28T16:36:48.345Z,15.96
2022-08-28T16:39:15.303Z,15.97
2022-08-28T16:41:43.246Z,15.96
2022-08-28T16:44:10.028Z,15.88
2022-08-28T16:46:36.977Z,15.88
2022-08-28T16:49:03.909Z,16.05
2022-08-28T16:51:30.788Z,16.23
2022-08-28T16:53:58.174Z,16.08
2022-08-28T16:56:25.327Z,15.92
2022-08-28T16:58:52.934Z,15.87
2022-08-28T17:01:24.212Z,15.86
2022-08-28T17:03:55.266Z,15.83
2022-08-28T17:06:24.946Z,15.78
2022-08-28T17:08:56.450Z,15.72
2022-08-28T17:11:25.951Z,15.83
2022-08-28T17:13:52.978Z,15.99
2022-08-28T17:16:20.612Z,15.73
2022-08-28T17:18:48.234Z,15.67
2022-08-28T17:21:38.129Z,15.65
2022-08-28T17:24:05.212Z,15.67
2022-08-28T17:26:31.932Z,15.63
2022-08-28T17:28:58.725Z,15.56
2022-08-28T17:31:25.522Z,15.50
2022-08-28T17:33:52.518Z,15.58
2022-08-28T17:36:32.441Z,15.49
2022-08-28T17:39:01.599Z,15.42
2022-08-28T17:41:28.618Z,15.67
2022-08-28T17:43:55.528Z,15.61
2022-08-28T17:46:22.678Z,15.58
2022-08-28T17:48:55.475Z,15.44
2022-08-28T17:51:43.026Z,15.33
2022-08-28T17:54:21.419Z,15.68
2022-08-28T17:56:49.557Z,15.40
2022-08-28T17:59:16.474Z,15.30
2022-08-28T18:01:45.239Z,15.32
2022-08-28T18:04:13.003Z,15.27
2022-08-28T18:06:40.398Z,15.27
2022-08-28T18:09:08.840Z,15.32
2022-08-28T18:11:36.536Z,15.20
2022-08-28T18:14:04.436Z,15.18
2022-08-28T18:16:32.848Z,15.21
2022-08-28T18:19:00.815Z,15.15
2022-08-28T18:21:28.247Z,15.13
2022-08-28T18:23:55.033Z,15.10
2022-08-28T18:26:21.947Z,15.17
2022-08-28T18:28:49.142Z,15.11
2022-08-28T18:31:16.047Z,15.14
2022-08-28T18:33:42.938Z,15.05
2022-08-28T18:36:12.843Z,15.06
2022-08-28T18:38:40.310Z,15.07
2022-08-28T18:41:09.007Z,15.01
2022-08-28T18:43:36.627Z,14.92
2022-08-28T18:46:05.684Z,14.95
2022-08-28T18:48:32.648Z,14.93
2022-08-28T18:50:59.424Z,14.90
2022-08-28T18:53:28.065Z,14.89
2022-08-28T18:55:56.123Z,14.78
2022-08-28T18:58:27.416Z,14.84
2022-08-28T19:00:54.671Z,14.78
2022-08-28T19:03:22.706Z,14.67
2022-08-28T19:05:49.666Z,14.64
2022-08-28T19:08:16.807Z,14.60
2022-08-28T19:10:43.616Z,14.57
2022-08-28T19:13:10.507Z,14.58
2022-08-28T19:15:37.471Z,14.56
2022-08-28T19:18:05.453Z,14.47
2022-08-28T19:20:33.139Z,14.53
2022-08-28T19:23:00.641Z,14.58
2022-08-28T19:25:35.058Z,14.49
2022-08-28T19:28:02.815Z,14.50
2022-08-28T19:30:33.015Z,14.56
2022-08-28T19:33:02.426Z,14.59
2022-08-28T19:35:29.480Z,14.59
2022-08-28T19:37:56.490Z,14.60
2022-08-28T19:40:23.614Z,14.61
2022-08-28T19:42:53.468Z,14.70
2022-08-28T19:45:22.109Z,14.69
2022-08-28T19:47:49.099Z,14.71
2022-08-28T19:50:16.573Z,14.73
2022-08-28T19:52:44.238Z,14.67
2022-08-28T19:55:24.401Z,14.67
2022-08-28T19:57:51.310Z,14.73
2022-08-28T20:00:21.019Z,14.73
2022-08-28T20:02:49.403Z,14.77
2022-08-28T20:05:16.260Z,14.79
2022-08-28T20:07:45.594Z,14.77
2022-08-28T20:10:12.895Z,14.67
2022-08-28T20:12:40.310Z,14.98
2022-08-28T20:15:17.562Z,15.15
2022-08-28T20:17:49.967Z,14.80
2022-08-28T20:20:23.056Z,14.76
2022-08-28T20:22:54.061Z,14.76
2022-08-28T20:25:21.800Z,14.78
2022-08-28T20:27:48.613Z,14.66
2022-08-28T20:30:15.408Z,14.59
2022-08-28T20:32:42.344Z,14.61
2022-08-28T20:35:11.940Z,14.62
2022-08-28T20:37:44.663Z,14.66
2022-08-28T20:40:18.762Z,14.62
2022-08-28T20:42:46.589Z,14.64
2022-08-28T20:45:15.210Z,14.60
2022-08-28T20:47:42.471Z,14.57
2022-08-28T20:50:09.922Z,14.55
2022-08-28T20:52:37.236Z,14.70
2022-08-28T20:55:05.454Z,14.59
2022-08-28T20:57:32.191Z,14.42
2022-08-28T21:00:04.776Z,14.35
2022-08-28T21:02:33.211Z,14.54
2022-08-28T21:05:00.866Z,14.51
2022-08-28T21:07:28.459Z,14.56
2022-08-28T21:10:05.204Z,14.54
2022-08-28T21:12:36.346Z,14.47
2022-08-28T21:15:04.159Z,14.48
2022-08-28T21:17:31.130Z,14.55
2022-08-28T21:20:05.644Z,14.49
2022-08-28T21:22:35.161Z,14.49
2022-08-28T21:25:04.564Z,14.46
2022-08-28T21:27:31.425Z,14.54
2022-08-28T21:30:02.063Z,14.49
2022-08-28T21:32:31.132Z,14.50
2022-08-28T21:34:58.474Z,14.62
2022-08-28T21:37:25.243Z,14.54
2022-08-28T21:39:56.243Z,14.83
2022-08-28T21:42:23.401Z,14.64
2022-08-28T21:44:51.891Z,14.70
2022-08-28T21:47:21.588Z,14.72
2022-08-28T21:49:50.201Z,14.50
2022-08-28T21:52:18.892Z,14.46
2022-08-28T21:54:45.776Z,14.45
2022-08-28T21:57:12.722Z,14.46
2022-08-28T21:59:39.567Z,14.46
2022-08-28T22:02:07.064Z,14.52
2022-08-28T22:04:34.782Z,14.53
2022-08-28T22:07:01.835Z,14.74
2022-08-28T22:09:29.106Z,14.53
2022-08-28T22:11:55.885Z,14.45
2022-08-28T22:14:25.200Z,14.46
2022-08-28T22:16:52.252Z,14.38
2022-08-28T22:19:19.156Z,14.37
2022-08-28T22:22:04.509Z,14.34
2022-08-28T22:24:31.337Z,14.40
2022-08-28T22:26:58.112Z,14.38
2022-08-28T22:29:25.275Z,14.33
2022-08-28T22:31:52.728Z,14.56
2022-08-28T22:34:19.963Z,14.52
2022-08-28T22:36:47.103Z,14.39
2022-08-28T22:39:13.847Z,14.35
2022-08-28T22:41:42.230Z,14.32
2022-08-28T22:44:09.964Z,14.29
2022-08-28T22:46:37.014Z,14.29
2022-08-28T22:49:05.046Z,14.26
2022-08-28T22:51:34.871Z,14.29
2022-08-28T22:54:02.167Z,14.25
2022-08-28T22:56:29.240Z,14.30
2022-08-28T22:58:56.165Z,14.27
2022-08-28T23:01:25.752Z,14.30
2022-08-28T23:03:53.036Z,14.26
2022-08-28T23:06:21.636Z,14.28
2022-08-28T23:08:48.470Z,14.25
2022-08-28T23:11:15.483Z,14.24
2022-08-28T23:13:42.241Z,14.27
2022-08-28T23:16:09.671Z,14.29
2022-08-28T23:19:06.808Z,14.28
2022-08-28T23:21:26.246Z,14.29
2022-08-28T23:23:53.380Z,14.30
2022-08-28T23:26:22.190Z,14.32
2022-08-28T23:28:49.096Z,14.31
2022-08-28T23:31:16.197Z,14.30
2022-08-28T23:33:43.091Z,14.43
2022-08-28T23:36:10.517Z,14.35
2022-08-28T23:38:40.672Z,14.33
2022-08-28T23:41:11.263Z,14.32
2022-08-28T23:43:38.253Z,14.32
2022-08-28T23:46:06.539Z,14.28
2022-08-28T23:48:33.946Z,14.28
2022-08-28T23:51:02.664Z,14.31
2022-08-28T23:53:29.558Z,14.30
2022-08-28T23:55:57.522Z,14.32
2022-08-28T23:58:31.690Z,14.27
